Time;durP1;ratioP1;P1;durP2;ratioP2;P2;SDS_P1;SDS_P2;PMS_P1;PMS_P2;Temp;Humidity;BMP_temperature;BMP_pressure;BME280_temperature;BME280_humidity;BME280_pressure;Samples;Min_cycle;Max_cycle;Signal;HPM_P1;HPM_P2
2022/10/11 00:02:17;;;;;;;1999.90;999.90;;;6.20;99.90;;;;;;5102101;28;20036;-64
2022/10/11 00:04:43;;;;;;;1999.90;999.90;;;6.20;99.90;;;;;;5108083;28;20172;-63
2022/10/11 00:07:09;;;;;;;1999.90;999.90;;;6.20;99.90;;;;;;5072933;28;20474;-63
2022/10/11 00:09:35;;;;;;;1999.90;999.90;;;6.20;99.90;;;;;;5096578;27;20047;-63
2022/10/11 00:12:00;;;;;;;1999.90;999.90;;;6.20;99.90;;;;;;5108458;28;20092;-63
2022/10/11 00:14:27;;;;;;;1999.90;999.90;;;6.10;99.90;;;;;;5107920;28;20382;-63
2022/10/11 00:16:53;;;;;;;1999.90;999.90;;;6.10;99.90;;;;;;5085453;28;20048;-63
2022/10/11 00:19:19;;;;;;;1999.90;999.90;;;6.10;99.90;;;;;;5102170;28;20078;-63
2022/10/11 00:21:45;;;;;;;1999.90;999.90;;;6.20;99.90;;;;;;5106424;28;20050;-63
2022/10/11 00:24:11;;;;;;;1999.90;999.90;;;6.10;99.90;;;;;;5108300;28;20577;-63
2022/10/11 00:26:37;;;;;;;1999.90;999.90;;;6.00;99.90;;;;;;5105653;28;20040;-63
2022/10/11 00:29:03;;;;;;;1999.90;999.90;;;6.00;99.90;;;;;;5107531;28;20507;-63
2022/10/11 00:31:28;;;;;;;1999.90;999.90;;;6.00;99.90;;;;;;5107509;28;20145;-63
2022/10/11 00:33:54;;;;;;;1999.90;999.90;;;5.90;99.90;;;;;;5108115;28;20031;-63
2022/10/11 00:36:21;;;;;;;1999.90;999.90;;;6.00;99.90;;;;;;5107956;28;20051;-63
2022/10/11 00:38:47;;;;;;;1999.90;999.90;;;5.90;99.90;;;;;;5114275;28;20939;-63
2022/10/11 00:41:14;;;;;;;1999.90;999.90;;;5.90;99.90;;;;;;5115154;28;20039;-63
2022/10/11 00:43:40;;;;;;;1999.90;999.90;;;5.90;99.90;;;;;;5089079;28;20535;-63
2022/10/11 00:46:18;;;;;;;1999.90;999.90;;;5.90;99.90;;;;;;5089911;28;20043;-63
2022/10/11 00:48:55;;;;;;;1999.90;999.90;;;5.90;99.90;;;;;;5066748;28;20071;-63
2022/10/11 00:51:33;;;;;;;1999.90;999.90;;;5.80;99.90;;;;;;5087257;28;20393;-63
2022/10/11 00:54:00;;;;;;;1999.90;999.90;;;5.80;99.90;;;;;;5081950;28;20039;-63
2022/10/11 00:56:33;;;;;;;1999.90;999.90;;;5.70;99.90;;;;;;5107801;28;20074;-63
2022/10/11 00:59:03;;;;;;;1999.90;999.90;;;5.70;99.90;;;;;;5071141;28;20496;-63
2022/10/11 01:01:29;;;;;;;1999.90;999.90;;;5.70;99.90;;;;;;5106960;28;20035;-63
2022/10/11 01:03:55;;;;;;;1999.90;999.90;;;5.60;99.90;;;;;;5106231;28;20150;-63
2022/10/11 01:06:20;;;;;;;1999.90;999.90;;;5.60;99.90;;;;;;5080897;28;20083;-64
2022/10/11 01:08:46;;;;;;;1999.90;999.90;;;5.60;99.90;;;;;;5100218;28;20405;-64
2022/10/11 01:11:16;;;;;;;1999.90;999.90;;;5.60;99.90;;;;;;5088731;28;20423;-64
2022/10/11 01:14:05;;;;;;;1999.90;999.90;;;5.60;99.90;;;;;;5088193;28;20039;-64
2022/10/11 01:16:49;;;;;;;1999.90;999.90;;;5.60;99.90;;;;;;5089174;28;20043;-64
2022/10/11 01:19:47;;;;;;;1999.90;999.90;;;5.60;99.90;;;;;;5085629;28;20189;-64
2022/10/11 01:22:33;;;;;;;1999.90;999.90;;;5.60;99.90;;;;;;5072071;28;20052;-64
2022/10/11 01:25:17;;;;;;;1999.90;999.90;;;5.60;99.90;;;;;;5112604;28;20116;-64
2022/10/11 01:28:28;;;;;;;1999.90;999.90;;;5.50;99.90;;;;;;5094737;28;20241;-64
2022/10/11 01:31:00;;;;;;;1999.90;999.90;;;5.50;99.90;;;;;;5077136;28;20127;-64
2022/10/11 01:33:49;;;;;;;1999.90;999.90;;;5.50;99.90;;;;;;5075297;28;20457;-64
2022/10/11 01:36:27;;;;;;;1999.90;999.90;;;5.50;99.90;;;;;;5106842;28;20047;-64
2022/10/11 01:39:08;;;;;;;1999.90;999.90;;;5.50;99.90;;;;;;5081863;28;20047;-64
2022/10/11 01:41:37;;;;;;;1999.90;999.90;;;5.50;99.90;;;;;;5106567;28;20051;-64
2022/10/11 01:44:05;;;;;;;1999.90;999.90;;;5.40;99.90;;;;;;5105061;28;20043;-64
2022/10/11 01:46:33;;;;;;;1999.90;999.90;;;5.40;99.90;;;;;;5110771;28;20133;-64
2022/10/11 01:49:00;;;;;;;1999.90;999.90;;;5.40;99.90;;;;;;5092919;28;20100;-64
2022/10/11 01:51:34;;;;;;;1999.90;999.90;;;5.40;99.90;;;;;;5098710;27;20043;-64
2022/10/11 01:54:18;;;;;;;1999.90;999.90;;;5.50;99.90;;;;;;5091862;28;20538;-64
2022/10/11 01:57:17;;;;;;;1999.90;999.90;;;5.40;99.90;;;;;;5091948;28;20054;-64
2022/10/11 01:59:56;;;;;;;1999.90;999.90;;;5.40;99.90;;;;;;5110255;27;20054;-65
2022/10/11 02:02:28;;;;;;;1999.90;999.90;;;5.40;99.90;;;;;;5114774;27;20109;-64
2022/10/11 02:04:56;;;;;;;;;;;5.40;99.90;;;;;;5087876;28;20044;-64
2022/10/11 02:07:29;;;;;;;1999.90;999.90;;;5.40;99.90;;;;;;5109528;28;20663;-64
2022/10/11 02:10:10;;;;;;;1999.90;999.90;;;5.40;99.90;;;;;;5101014;28;20036;-64
2022/10/11 02:12:40;;;;;;;1999.90;999.90;;;5.40;99.90;;;;;;5107457;28;20039;-64
2022/10/11 02:15:09;;;;;;;1999.90;999.90;;;5.30;99.90;;;;;;5109800;28;20517;-64
2022/10/11 02:17:40;;;;;;;1999.90;999.90;;;5.30;99.90;;;;;;5106268;28;20052;-64
2022/10/11 02:20:12;;;;;;;1999.90;999.90;;;5.30;99.90;;;;;;5110222;28;20035;-64
2022/10/11 02:22:41;;;;;;;1999.90;999.90;;;5.30;99.90;;;;;;5109408;27;20452;-64
2022/10/11 02:25:11;;;;;;;1999.90;999.90;;;5.30;99.90;;;;;;5113874;27;20040;-64
2022/10/11 02:27:39;;;;;;;1999.90;999.90;;;5.20;99.90;;;;;;5111093;27;20048;-64
2022/10/11 02:30:07;;;;;;;1999.90;999.90;;;5.20;99.90;;;;;;5120285;27;20040;-64
2022/10/11 02:32:35;;;;;;;1999.90;999.90;;;5.20;99.90;;;;;;5085495;27;20047;-64
2022/10/11 02:35:02;;;;;;;1999.90;999.90;;;5.10;99.90;;;;;;5099851;28;20390;-64
2022/10/11 02:37:57;;;;;;;1999.90;999.90;;;5.00;99.90;;;;;;5073097;28;20047;-64
2022/10/11 02:40:46;;;;;;;1999.90;999.90;;;5.00;99.90;;;;;;5099012;27;20039;-64
2022/10/11 02:43:31;;;;;;;1999.90;999.90;;;4.90;99.90;;;;;;5090773;28;20040;-64
2022/10/11 02:46:00;;;;;;;1999.90;999.90;;;4.90;99.90;;;;;;5109984;28;20404;-64
2022/10/11 02:48:28;;;;;;;1999.90;999.90;;;4.80;99.90;;;;;;5112762;27;20093;-64
2022/10/11 02:50:55;;;;;;;1999.90;999.90;;;4.80;99.90;;;;;;5102383;28;20039;-64
2022/10/11 02:53:22;;;;;;;1999.90;999.90;;;4.80;99.90;;;;;;5109722;28;20047;-64
2022/10/11 02:55:50;;;;;;;1999.90;999.90;;;4.80;99.90;;;;;;5096309;28;20458;-64
2022/10/11 02:58:15;;;;;;;1999.90;999.90;;;4.80;99.90;;;;;;5109305;27;20047;-64
2022/10/11 03:00:42;;;;;;;1999.90;999.90;;;4.70;99.90;;;;;;5109289;28;20040;-64
2022/10/11 03:03:07;;;;;;;1999.90;999.90;;;4.80;99.90;;;;;;5109308;28;20146;-64
2022/10/11 03:05:39;;;;;;;1999.90;999.90;;;4.80;99.90;;;;;;5109083;28;20151;-64
2022/10/11 03:08:06;;;;;;;1999.90;999.90;;;4.80;99.90;;;;;;5090398;28;20530;-64
2022/10/11 03:10:33;;;;;;;1999.90;999.90;;;4.80;99.90;;;;;;5112761;27;20046;-64
2022/10/11 03:12:58;;;;;;;1999.90;999.90;;;4.70;99.90;;;;;;5101221;28;20439;-64
2022/10/11 03:15:24;;;;;;;1999.90;999.90;;;4.70;99.90;;;;;;5108485;28;20047;-64
2022/10/11 03:17:49;;;;;;;1999.90;999.90;;;4.70;99.90;;;;;;5108000;28;20046;-64
2022/10/11 03:20:15;;;;;;;1999.90;999.90;;;4.70;99.90;;;;;;5091181;28;20044;-64
2022/10/11 03:22:40;;;;;;;1999.90;999.90;;;4.70;99.90;;;;;;5099314;28;20043;-64
2022/10/11 03:25:06;;;;;;;1999.90;999.90;;;4.70;99.90;;;;;;5109190;28;20059;-64
2022/10/11 03:27:32;;;;;;;1999.90;999.90;;;4.70;99.90;;;;;;5109759;27;20096;-64
2022/10/11 03:29:58;;;;;;;1999.90;999.90;;;4.80;99.90;;;;;;5102573;28;20142;-64
2022/10/11 03:32:24;;;;;;;1999.90;999.90;;;4.70;99.90;;;;;;5098828;28;20028;-64
2022/10/11 03:34:49;;;;;;;1999.90;999.90;;;4.60;99.90;;;;;;5107281;28;20035;-64
2022/10/11 03:37:15;;;;;;;1999.90;999.90;;;4.60;99.90;;;;;;5109183;27;20472;-64
2022/10/11 03:39:40;;;;;;;1999.90;999.90;;;4.50;99.90;;;;;;5105764;28;20078;-64
2022/10/11 03:42:06;;;;;;;1999.90;999.90;;;4.50;99.90;;;;;;5096486;28;20485;-64
2022/10/11 03:44:32;;;;;;;1999.90;999.90;;;4.50;99.90;;;;;;5089563;28;20058;-64
2022/10/11 03:46:57;;;;;;;1999.90;999.90;;;4.50;99.90;;;;;;5096795;27;20047;-64
2022/10/11 03:49:23;;;;;;;1999.90;999.90;;;4.60;99.90;;;;;;5086356;28;20051;-64
2022/10/11 03:51:49;;;;;;;1999.90;999.90;;;4.60;99.90;;;;;;5111181;27;20040;-64
2022/10/11 03:54:14;;;;;;;1999.90;999.90;;;4.70;99.90;;;;;;5108613;28;20051;-64
2022/10/11 03:56:40;;;;;;;1999.90;999.90;;;4.60;99.90;;;;;;5106908;27;20042;-64
2022/10/11 03:59:06;;;;;;;1999.90;999.90;;;4.70;99.90;;;;;;5089926;28;20036;-64
2022/10/11 04:01:36;;;;;;;1999.90;999.90;;;4.70;99.90;;;;;;5108516;28;20358;-64
2022/10/11 04:04:02;;;;;;;1999.90;999.90;;;4.70;99.90;;;;;;5106497;27;20035;-64
2022/10/11 04:06:28;;;;;;;1999.90;999.90;;;4.70;99.90;;;;;;5107955;28;20035;-64
2022/10/11 04:08:53;;;;;;;1999.90;999.90;;;4.80;99.90;;;;;;5075237;27;20041;-65
2022/10/11 04:11:19;;;;;;;1999.90;999.90;;;4.80;99.90;;;;;;5079343;28;20043;-64
2022/10/11 04:13:45;;;;;;;1999.90;999.90;;;4.80;99.90;;;;;;5088865;28;20052;-64
2022/10/11 04:16:10;;;;;;;1999.90;999.90;;;4.80;99.90;;;;;;5082055;28;20058;-64
2022/10/11 04:18:36;;;;;;;1999.90;999.90;;;4.70;99.90;;;;;;5089863;28;20050;-64
2022/10/11 04:21:02;;;;;;;1999.90;999.90;;;4.70;99.90;;;;;;5072764;28;20081;-64
2022/10/11 04:23:29;;;;;;;1999.90;999.90;;;4.70;99.90;;;;;;5107662;28;20039;-64
2022/10/11 04:25:55;;;;;;;1999.90;999.90;;;4.70;99.90;;;;;;5089360;28;20051;-64
2022/10/11 04:28:21;;;;;;;1999.90;999.90;;;4.70;99.90;;;;;;5113610;27;20047;-64
2022/10/11 04:30:47;;;;;;;1999.90;999.90;;;4.70;99.90;;;;;;5093234;28;20039;-64
2022/10/11 04:33:12;;;;;;;1999.90;999.90;;;4.60;99.90;;;;;;5107703;28;20031;-64
2022/10/11 04:35:38;;;;;;;1999.90;999.90;;;4.70;99.90;;;;;;5108269;28;20044;-64
2022/10/11 04:38:04;;;;;;;1999.90;999.90;;;4.70;99.90;;;;;;5107218;28;20549;-64
2022/10/11 04:40:30;;;;;;;1999.90;999.90;;;4.70;99.90;;;;;;5107720;28;20036;-64
2022/10/11 04:42:56;;;;;;;1999.90;999.90;;;4.80;99.90;;;;;;5108248;28;20039;-64
2022/10/11 04:45:21;;;;;;;1999.90;999.90;;;4.90;99.90;;;;;;5106547;28;20054;-64
2022/10/11 04:47:47;;;;;;;1999.90;999.90;;;5.00;99.90;;;;;;5112658;28;20049;-64
2022/10/11 04:50:13;;;;;;;1999.90;999.90;;;5.10;99.90;;;;;;5122348;28;20522;-64
2022/10/11 04:52:38;;;;;;;1999.90;999.90;;;5.10;99.90;;;;;;5108197;28;20036;-64
2022/10/11 04:55:05;;;;;;;1999.90;999.90;;;5.20;99.90;;;;;;5107474;28;20047;-64
2022/10/11 04:57:30;;;;;;;1999.90;999.90;;;5.30;99.90;;;;;;5117106;28;20452;-64
2022/10/11 04:59:56;;;;;;;1999.90;999.90;;;5.40;99.90;;;;;;5115356;28;20032;-64
2022/10/11 05:02:22;;;;;;;1999.90;999.90;;;5.50;99.90;;;;;;5089183;28;20481;-64
2022/10/11 05:04:47;;;;;;;1999.90;999.90;;;5.60;99.90;;;;;;5108239;28;20044;-64
2022/10/11 05:07:13;;;;;;;1999.90;999.90;;;5.70;99.90;;;;;;5090663;28;20092;-64
2022/10/11 05:09:38;;;;;;;1999.90;999.90;;;5.80;99.90;;;;;;5099686;28;20430;-64
2022/10/11 05:12:04;;;;;;;1999.90;999.90;;;5.80;99.90;;;;;;5105976;28;20076;-65
2022/10/11 05:14:30;;;;;;;1999.90;999.90;;;5.90;99.90;;;;;;5104281;28;20043;-64
2022/10/11 05:16:55;;;;;;;1999.90;999.90;;;6.00;99.90;;;;;;5111096;28;20109;-64
2022/10/11 05:19:21;;;;;;;1999.90;999.90;;;6.00;99.90;;;;;;5106931;28;20537;-64
2022/10/11 05:21:46;;;;;;;1999.90;999.90;;;6.00;99.90;;;;;;5108922;28;20044;-64
2022/10/11 05:24:12;;;;;;;1999.90;999.90;;;6.00;99.90;;;;;;5093383;27;20354;-65
2022/10/11 05:26:38;;;;;;;1999.90;999.90;;;6.10;99.90;;;;;;5124068;27;20046;-64
2022/10/11 05:29:03;;;;;;;1999.90;999.90;;;6.10;99.90;;;;;;5110284;28;20123;-64
2022/10/11 05:31:29;;;;;;;1999.90;999.90;;;6.10;99.90;;;;;;5103334;28;20046;-65
2022/10/11 05:33:54;;;;;;;1999.90;999.90;;;6.10;99.90;;;;;;5111565;28;20044;-64
2022/10/11 05:36:20;;;;;;;1999.90;999.90;;;6.10;99.90;;;;;;5092131;28;20040;-68
2022/10/11 05:38:46;;;;;;;1999.90;999.90;;;6.10;99.90;;;;;;5087652;28;20055;-65
2022/10/11 05:41:13;;;;;;;1999.90;999.90;;;6.10;99.90;;;;;;5075851;28;20046;-65
2022/10/11 05:43:39;;;;;;;1999.90;999.90;;;6.10;99.90;;;;;;5091594;28;20059;-65
2022/10/11 05:46:05;;;;;;;1999.90;999.90;;;6.00;99.90;;;;;;5110723;27;20117;-65
2022/10/11 05:48:30;;;;;;;1999.90;999.90;;;5.90;99.90;;;;;;5109864;28;20071;-65
2022/10/11 05:51:05;;;;;;;1999.90;999.90;;;5.90;99.90;;;;;;5091380;28;20071;-65
2022/10/11 05:53:32;;;;;;;1999.90;999.90;;;5.90;99.90;;;;;;5110468;28;20043;-65
2022/10/11 05:55:58;;;;;;;1999.90;999.90;;;5.90;99.90;;;;;;5110479;28;20448;-65
2022/10/11 05:58:23;;;;;;;1999.90;999.90;;;5.90;99.90;;;;;;5111039;28;20437;-65
2022/10/11 06:00:49;;;;;;;1999.90;999.90;;;5.90;99.90;;;;;;5109440;27;20460;-65
2022/10/11 06:03:14;;;;;;;1999.90;999.90;;;5.90;99.90;;;;;;5109612;28;20515;-67
2022/10/11 06:05:40;;;;;;;1999.90;999.90;;;5.90;99.90;;;;;;5109570;28;20084;-65
2022/10/11 06:08:07;;;;;;;1999.90;999.90;;;5.90;99.90;;;;;;5096197;27;20070;-65
2022/10/11 06:10:34;;;;;;;1999.90;999.90;;;5.90;99.90;;;;;;5093634;28;20603;-65
2022/10/11 06:12:59;;;;;;;1999.90;999.90;;;5.90;99.90;;;;;;5110191;27;20032;-65
2022/10/11 06:15:25;;;;;;;1999.90;999.90;;;5.90;99.90;;;;;;5110204;28;20036;-65
2022/10/11 06:17:51;;;;;;;1999.90;999.90;;;6.00;99.90;;;;;;5101739;28;20392;-65
2022/10/11 06:20:17;;;;;;;1999.90;999.90;;;5.90;99.90;;;;;;5115890;27;20424;-65
2022/10/11 06:22:43;;;;;;;1999.90;999.90;;;5.90;99.90;;;;;;5109036;28;20360;-65
2022/10/11 06:25:09;;;;;;;1999.90;999.90;;;5.90;99.90;;;;;;5090510;27;20065;-65
2022/10/11 06:27:34;;;;;;;1999.90;999.90;;;6.00;99.90;;;;;;5105076;27;20047;-65
2022/10/11 06:30:00;;;;;;;1999.90;999.90;;;6.10;99.90;;;;;;5107680;27;20039;-65
2022/10/11 06:32:26;;;;;;;1999.90;999.90;;;6.10;99.90;;;;;;5098899;27;20398;-65
2022/10/11 06:34:51;;;;;;;1999.90;999.90;;;6.10;99.90;;;;;;5111189;27;20046;-65
2022/10/11 06:37:17;;;;;;;1999.90;999.90;;;6.10;99.90;;;;;;5102993;27;20043;-65
2022/10/11 06:39:43;;;;;;;1999.90;999.90;;;6.10;99.90;;;;;;5111169;27;22008;-65
2022/10/11 06:42:10;;;;;;;1999.90;999.90;;;6.20;99.90;;;;;;5111364;27;20043;-65
2022/10/11 06:44:36;;;;;;;1999.90;999.90;;;6.20;99.90;;;;;;5104410;28;20506;-65
2022/10/11 06:47:02;;;;;;;1999.90;999.90;;;6.30;99.90;;;;;;5086362;28;20075;-65
2022/10/11 06:49:27;;;;;;;1999.90;999.90;;;6.40;99.90;;;;;;5088290;28;20274;-65
2022/10/11 06:51:53;;;;;;;1999.90;999.90;;;6.50;99.90;;;;;;5108865;28;20035;-65
2022/10/11 06:54:18;;;;;;;1999.90;999.90;;;6.50;99.90;;;;;;5073621;28;20044;-65
2022/10/11 06:56:44;;;;;;;1999.90;999.90;;;6.60;99.90;;;;;;5088722;28;20069;-65
2022/10/11 06:59:12;;;;;;;1999.90;999.90;;;6.70;99.90;;;;;;5094114;28;20042;-65
2022/10/11 07:01:37;;;;;;;1999.90;999.90;;;6.90;99.90;;;;;;5089232;28;20050;-65
2022/10/11 07:04:03;;;;;;;1999.90;999.90;;;7.00;99.90;;;;;;5108504;28;20489;-65
2022/10/11 07:06:30;;;;;;;1999.90;999.90;;;7.10;99.90;;;;;;5108079;28;20118;-65
2022/10/11 07:08:57;;;;;;;1999.90;999.90;;;7.20;99.90;;;;;;5093918;28;20047;-65
2022/10/11 07:11:25;;;;;;;1999.90;999.90;;;7.40;99.90;;;;;;5088045;28;20039;-65
2022/10/11 07:13:56;;;;;;;1999.90;999.90;;;7.50;99.90;;;;;;5105275;27;20115;-65
2022/10/11 07:16:23;;;;;;;1999.90;999.90;;;7.60;99.90;;;;;;5113421;27;20110;-65
2022/10/11 07:18:53;;;;;;;1999.90;999.90;;;7.80;99.90;;;;;;5092848;28;20412;-65
2022/10/11 07:21:18;;;;;;;1999.90;999.90;;;7.90;99.90;;;;;;5108708;28;20168;-65
2022/10/11 07:23:44;;;;;;;1999.90;999.90;;;8.00;99.90;;;;;;5109916;27;20142;-65
2022/10/11 07:26:10;;;;;;;1999.90;999.90;;;8.20;99.90;;;;;;5108318;28;20040;-65
2022/10/11 07:28:37;;;;;;;1999.90;999.90;;;8.30;99.90;;;;;;5109235;28;20047;-65
2022/10/11 07:31:12;;;;;;;1999.90;999.90;;;8.40;99.90;;;;;;5091065;28;20040;-65
2022/10/11 07:33:38;;;;;;;1999.90;999.90;;;8.50;99.90;;;;;;5088679;28;20050;-65
2022/10/11 07:36:04;;;;;;;1999.90;999.90;;;8.60;99.90;;;;;;5108152;28;20051;-64
2022/10/11 07:38:30;;;;;;;1999.90;999.90;;;8.80;99.90;;;;;;5108343;28;20524;-65
2022/10/11 07:40:56;;;;;;;1999.90;999.90;;;8.90;99.90;;;;;;5100589;28;20090;-67
2022/10/11 07:43:22;;;;;;;1999.90;999.90;;;9.00;99.90;;;;;;5106191;28;20062;-64
2022/10/11 07:45:53;;;;;;;1999.90;999.90;;;9.10;99.90;;;;;;5108947;28;20043;-65
2022/10/11 07:48:19;;;;;;;1999.90;999.90;;;9.30;99.90;;;;;;5108328;28;20038;-65
2022/10/11 07:50:45;;;;;;;1999.90;999.90;;;9.50;99.90;;;;;;5102584;28;20379;-65
2022/10/11 07:53:10;;;;;;;1999.90;999.90;;;9.70;99.90;;;;;;5087953;28;20043;-65
2022/10/11 07:55:40;;;;;;;1999.90;999.90;;;10.00;99.90;;;;;;5067484;28;20142;-66
2022/10/11 07:58:07;;;;;;;1999.90;999.90;;;10.10;99.90;;;;;;5090185;27;20127;-66
2022/10/11 08:00:33;;;;;;;1999.90;999.90;;;10.20;99.90;;;;;;5107965;28;20039;-66
2022/10/11 08:03:02;;;;;;;1999.90;999.90;;;10.30;99.90;;;;;;5103818;27;20040;-66
2022/10/11 08:05:28;;;;;;;1999.90;999.90;;;10.30;99.90;;;;;;5102775;28;20404;-66
2022/10/11 08:07:53;;;;;;;1999.90;999.90;;;10.30;99.90;;;;;;5096226;28;20036;-66
2022/10/11 08:10:19;;;;;;;1999.90;999.90;;;10.40;99.90;;;;;;5069905;28;20040;-66
2022/10/11 08:12:48;;;;;;;1999.90;999.90;;;10.50;99.90;;;;;;5081144;28;20568;-66
2022/10/11 08:15:13;;;;;;;1999.90;999.90;;;10.70;99.90;;;;;;5105137;27;20051;-66
2022/10/11 08:17:39;;;;;;;1999.90;999.90;;;11.00;99.90;;;;;;5101851;28;20055;-66
2022/10/11 08:20:05;;;;;;;1999.90;999.90;;;11.60;99.90;;;;;;5105345;28;20133;-66
2022/10/11 08:22:30;;;;;;;1999.90;999.90;;;12.40;99.90;;;;;;5089202;28;20508;-66
2022/10/11 08:24:56;;;;;;;1999.90;999.90;;;12.70;99.90;;;;;;5092789;28;20071;-66
2022/10/11 08:27:22;;;;;;;1999.90;999.90;;;12.60;99.90;;;;;;5089941;28;20040;-66
2022/10/11 08:29:48;;;;;;;1999.90;999.90;;;13.10;99.90;;;;;;5087239;28;20092;-66
2022/10/11 08:32:14;;;;;;;1999.90;999.90;;;13.80;99.90;;;;;;5086044;28;20082;-66
2022/10/11 08:34:39;;;;;;;1999.90;999.90;;;14.50;99.90;;;;;;5106941;27;20108;-66
2022/10/11 08:37:05;;;;;;;1999.90;999.90;;;14.80;99.90;;;;;;5098858;28;20046;-66
2022/10/11 08:39:30;;;;;;;1999.90;999.90;;;15.20;99.90;;;;;;5094700;28;20096;-66
2022/10/11 08:42:05;;;;;;;1999.90;999.90;;;15.70;99.90;;;;;;5103451;28;20070;-66
2022/10/11 08:44:39;;;;;;;1999.90;999.90;;;16.10;99.90;;;;;;5088377;28;20047;-67
2022/10/11 08:47:10;;;;;;;1999.90;999.90;;;16.60;99.90;;;;;;5107070;28;20039;-66
2022/10/11 08:49:37;;;;;;;1999.90;999.90;;;16.90;99.90;;;;;;5107745;28;20044;-66
2022/10/11 08:52:11;;;;;;;1999.90;999.90;;;17.30;99.90;;;;;;5110990;28;20127;-67
2022/10/11 08:54:42;;;;;;;1999.90;999.90;;;17.60;99.90;;;;;;5087107;28;20040;-66
2022/10/11 08:57:13;;;;;;;1999.90;999.90;;;17.20;99.90;;;;;;5093099;28;20108;-67
2022/10/11 08:59:49;;;;;;;1999.90;999.90;;;17.30;99.90;;;;;;5112360;28;20046;-67
2022/10/11 09:02:20;;;;;;;1999.90;999.90;;;17.10;99.90;;;;;;5094626;28;20121;-66
2022/10/11 09:04:49;;;;;;;1999.90;999.90;;;16.80;99.90;;;;;;5109676;28;20067;-66
2022/10/11 09:07:40;;;;;;;1999.90;999.90;;;16.40;99.90;;;;;;5106949;28;20040;-66
2022/10/11 09:10:12;;;;;;;1999.90;999.90;;;16.10;99.90;;;;;;5106616;28;20036;-66
2022/10/11 09:12:47;;;;;;;1999.90;999.90;;;15.90;99.90;;;;;;5108281;27;20035;-66
2022/10/11 09:15:37;;;;;;;1999.90;999.90;;;15.90;99.90;;;;;;5094724;28;20645;-66
2022/10/11 09:18:16;;;;;;;1999.90;999.90;;;16.00;99.90;;;;;;5108372;27;20451;-66
2022/10/11 09:21:23;;;;;;;1999.90;999.90;;;15.90;99.90;;;;;;5112294;27;20047;-67
2022/10/11 09:24:20;;;;;;;1999.90;999.90;;;16.50;99.90;;;;;;5108273;28;20047;-66
2022/10/11 09:27:17;;;;;;;1999.90;999.90;;;16.80;99.90;;;;;;5116760;27;20051;-66
2022/10/11 09:30:03;;;;;;;1999.90;999.90;;;17.20;99.90;;;;;;5103098;27;20063;-67
2022/10/11 09:32:34;;;;;;;1999.90;999.90;;;17.70;99.90;;;;;;5110974;27;20030;-67
2022/10/11 09:35:10;;;;;;;1999.90;999.90;;;17.90;99.90;;;;;;5093651;28;20052;-67
2022/10/11 09:38:13;;;;;;;1999.90;999.90;;;18.00;99.90;;;;;;5109885;28;20044;-67
2022/10/11 09:41:08;;;;;;;1999.90;999.90;;;18.30;99.90;;;;;;5109512;28;20480;-67
2022/10/11 09:43:33;;;;;;;1999.90;999.90;;;18.40;99.90;;;;;;5036232;28;20063;-66
2022/10/11 09:45:59;;;;;;;1999.90;999.90;;;17.70;99.90;;;;;;5109667;28;20043;-67
2022/10/11 09:48:40;;;;;;;1999.90;999.90;;;17.00;99.90;;;;;;5076355;28;20066;-66
2022/10/11 09:51:13;;;;;;;1999.90;999.90;;;16.40;99.90;;;;;;5105185;28;20039;-66
2022/10/11 09:54:03;;;;;;;1999.90;999.90;;;16.40;99.90;;;;;;5110207;28;20044;-67
2022/10/11 09:56:30;;;;;;;1999.90;999.90;;;16.50;99.90;;;;;;5094656;28;20050;-67
2022/10/11 09:59:16;;;;;;;1999.90;999.90;;;16.60;99.90;;;;;;5107220;28;20119;-66
2022/10/11 10:01:41;;;;;;;1999.90;999.90;;;16.60;99.90;;;;;;5112108;27;20058;-67
2022/10/11 10:04:13;;;;;;;1999.90;999.90;;;16.70;99.90;;;;;;5109995;28;20066;-67
2022/10/11 10:06:39;;;;;;;1999.90;999.90;;;16.80;99.90;;;;;;5114310;27;20058;-67
2022/10/11 10:09:27;;;;;;;1999.90;999.90;;;17.00;99.90;;;;;;5110721;28;20040;-67
2022/10/11 10:11:55;;;;;;;1999.90;999.90;;;17.20;99.90;;;;;;5089682;27;20045;-67
2022/10/11 10:14:25;;;;;;;1999.90;999.90;;;17.30;99.90;;;;;;5110942;28;20035;-67
2022/10/11 10:17:15;;;;;;;1999.90;999.90;;;17.30;99.90;;;;;;5094048;27;20177;-67
2022/10/11 10:19:52;;;;;;;1999.90;999.90;;;17.30;99.90;;;;;;5095830;27;20189;-67
2022/10/11 10:22:21;;;;;;;1999.90;999.90;;;17.10;99.90;;;;;;5082880;28;20040;-67
2022/10/11 10:24:50;;;;;;;1999.90;999.90;;;17.10;99.90;;;;;;5107862;28;20044;-67
2022/10/11 10:27:15;;;;;;;1999.90;999.90;;;17.10;99.90;;;;;;5101106;27;20101;-67
2022/10/11 10:29:42;;;;;;;1999.90;999.90;;;17.20;99.90;;;;;;5090520;28;20113;-67
2022/10/11 10:32:21;;;;;;;1999.90;999.90;;;17.30;99.90;;;;;;5109904;28;20399;-67
2022/10/11 10:35:20;;;;;;;1999.90;999.90;;;17.30;99.90;;;;;;5109525;27;20509;-66
2022/10/11 10:37:58;;;;;;;1999.90;999.90;;;17.00;99.90;;;;;;5062042;28;20513;-67
2022/10/11 10:40:36;;;;;;;1999.90;999.90;;;16.90;99.90;;;;;;5106773;28;20071;-66
2022/10/11 10:43:02;;;;;;;1999.90;999.90;;;17.00;99.90;;;;;;5109287;27;20051;-67
2022/10/11 10:45:41;;;;;;;1999.90;999.90;;;17.20;99.90;;;;;;5107106;27;20054;-67
2022/10/11 10:48:18;;;;;;;1999.90;999.90;;;17.50;99.90;;;;;;5105413;27;20051;-67
2022/10/11 10:51:11;;;;;;;1999.90;999.90;;;17.90;99.90;;;;;;5101174;27;20046;-67
2022/10/11 10:53:43;;;;;;;1999.90;999.90;;;18.00;99.90;;;;;;5083252;28;20128;-67
2022/10/11 10:56:28;;;;;;;1999.90;999.90;;;17.90;99.90;;;;;;5105971;27;20417;-67
2022/10/11 10:59:06;;;;;;;1999.90;999.90;;;17.90;99.90;;;;;;5101863;27;20052;-66
2022/10/11 11:01:34;;;;;;;1999.90;999.90;;;18.20;99.90;;;;;;5085553;28;20094;-67
2022/10/11 11:04:20;;;;;;;1999.90;999.90;;;18.30;99.90;;;;;;5093831;28;20047;-67
2022/10/11 11:06:56;;;;;;;1999.90;999.90;;;18.30;99.90;;;;;;5098729;27;20098;-67
2022/10/11 11:09:48;;;;;;;1999.90;999.90;;;18.20;99.90;;;;;;5103992;28;20060;-67
2022/10/11 11:12:37;;;;;;;1999.90;999.90;;;18.10;99.90;;;;;;5080969;27;20035;-66
2022/10/11 11:15:18;;;;;;;1999.90;999.90;;;17.90;99.90;;;;;;5082810;28;20052;-67
2022/10/11 11:18:02;;;;;;;1999.90;999.90;;;17.50;99.90;;;;;;5101956;27;20044;-67
2022/10/11 11:20:48;;;;;;;1999.90;999.90;;;17.20;99.90;;;;;;5090866;28;20062;-67
2022/10/11 11:23:33;;;;;;;1999.90;999.90;;;16.90;99.90;;;;;;5099325;28;20039;-66
2022/10/11 11:26:22;;;;;;;1999.90;999.90;;;16.50;99.90;;;;;;5094594;27;20047;-66
2022/10/11 11:28:59;;;;;;;1999.90;999.90;;;16.20;99.90;;;;;;5099639;28;20063;-66
2022/10/11 11:31:46;;;;;;;1999.90;999.90;;;15.90;99.90;;;;;;5076558;28;20035;-66
2022/10/11 11:34:31;;;;;;;1999.90;999.90;;;15.70;99.90;;;;;;5107910;28;20032;-68
2022/10/11 11:37:02;;;;;;;1999.90;999.90;;;15.60;99.90;;;;;;5090194;28;20142;-66
2022/10/11 11:39:48;;;;;;;1999.90;999.90;;;15.50;99.90;;;;;;5111154;27;20042;-66
2022/10/11 11:42:26;;;;;;;1999.90;999.90;;;15.50;99.90;;;;;;5090112;28;20051;-66
2022/10/11 11:44:52;;;;;;;1999.90;999.90;;;15.50;99.90;;;;;;5089760;28;20789;-66
2022/10/11 11:47:32;;;;;;;1999.90;999.90;;;15.50;99.90;;;;;;5097962;28;20092;-66
2022/10/11 11:50:03;;;;;;;1999.90;999.90;;;15.40;99.90;;;;;;5082217;28;20553;-66
2022/10/11 11:52:35;;;;;;;1999.90;999.90;;;15.40;99.90;;;;;;5103494;27;20044;-66
2022/10/11 11:55:06;;;;;;;1999.90;999.90;;;15.40;99.90;;;;;;5108494;28;20054;-66
2022/10/11 11:57:58;;;;;;;1999.90;999.90;;;15.40;99.90;;;;;;5097706;28;20439;-67
2022/10/11 12:00:29;;;;;;;1999.90;999.90;;;15.50;99.90;;;;;;5108023;28;20524;-66
2022/10/11 12:03:12;;;;;;;1999.90;999.90;;;15.50;99.90;;;;;;5096602;27;20067;-66
2022/10/11 12:05:58;;;;;;;1999.90;999.90;;;15.70;99.90;;;;;;5108131;28;20047;-66
2022/10/11 12:08:27;;;;;;;1999.90;999.90;;;16.00;99.90;;;;;;5111546;27;20036;-66
2022/10/11 12:10:59;;;;;;;1999.90;999.90;;;16.40;99.90;;;;;;5094015;28;20048;-66
2022/10/11 12:13:36;;;;;;;1999.90;999.90;;;16.70;99.90;;;;;;5094001;28;20040;-66
2022/10/11 12:16:11;;;;;;;1999.90;999.90;;;16.90;99.90;;;;;;5103518;27;20076;-66
2022/10/11 12:18:55;;;;;;;1999.90;999.90;;;17.00;99.90;;;;;;5098503;28;20059;-66
2022/10/11 12:21:35;;;;;;;1999.90;999.90;;;16.90;99.90;;;;;;5094272;28;20065;-66
2022/10/11 12:24:19;;;;;;;1999.90;999.90;;;16.70;99.90;;;;;;5073942;28;20040;-66
2022/10/11 12:26:53;;;;;;;1999.90;999.90;;;16.50;99.90;;;;;;5103525;28;20669;-65